sensor_id;sensor_type;location;lat;lon;timestamp;P1;durP1;ratioP1;P2;durP2;ratioP2
3991;SDS011;2010;48.194;16.394;2022-11-15T00:02:44;73.33;;;35.97;;
3991;SDS011;2010;48.194;16.394;2022-11-15T00:05:34;67.33;;;36.27;;
3991;SDS011;2010;48.194;16.394;2022-11-15T00:08:33;65.43;;;35.80;;
3991;SDS011;2010;48.194;16.394;2022-11-15T00:11:24;67.23;;;33.67;;
3991;SDS011;2010;48.194;16.394;2022-11-15T00:14:15;60.87;;;32.73;;
3991;SDS011;2010;48.194;16.394;2022-11-15T00:17:08;60.37;;;33.43;;
3991;SDS011;2010;48.194;16.394;2022-11-15T00:19:58;63.90;;;34.00;;
3991;SDS011;2010;48.194;16.394;2022-11-15T00:22:49;66.27;;;34.40;;
3991;SDS011;2010;48.194;16.394;2022-11-15T00:25:39;67.63;;;32.80;;
3991;SDS011;2010;48.194;16.394;2022-11-15T00:28:30;66.50;;;35.00;;
3991;SDS011;2010;48.194;16.394;2022-11-15T00:31:28;63.27;;;30.90;;
3991;SDS011;2010;48.194;16.394;2022-11-15T00:34:16;64.67;;;33.17;;
3991;SDS011;2010;48.194;16.394;2022-11-15T00:37:20;66.73;;;34.90;;
3991;SDS011;2010;48.194;16.394;2022-11-15T00:40:16;73.93;;;34.70;;
3991;SDS011;2010;48.194;16.394;2022-11-15T00:43:08;71.60;;;35.53;;
3991;SDS011;2010;48.194;16.394;2022-11-15T00:45:59;61.63;;;33.03;;
3991;SDS011;2010;48.194;16.394;2022-11-15T00:48:52;67.93;;;34.00;;
3991;SDS011;2010;48.194;16.394;2022-11-15T00:51:41;67.10;;;32.63;;
3991;SDS011;2010;48.194;16.394;2022-11-15T00:54:29;74.63;;;36.00;;
3991;SDS011;2010;48.194;16.394;2022-11-15T00:57:25;71.83;;;34.30;;
3991;SDS011;2010;48.194;16.394;2022-11-15T01:00:20;78.10;;;36.10;;
3991;SDS011;2010;48.194;16.394;2022-11-15T01:03:10;68.53;;;34.50;;
3991;SDS011;2010;48.194;16.394;2022-11-15T01:05:59;68.97;;;34.83;;
3991;SDS011;2010;48.194;16.394;2022-11-15T01:08:49;79.43;;;35.90;;
3991;SDS011;2010;48.194;16.394;2022-11-15T01:11:39;71.50;;;34.57;;
3991;SDS011;2010;48.194;16.394;2022-11-15T01:14:28;73.10;;;36.50;;
3991;SDS011;2010;48.194;16.394;2022-11-15T01:17:27;66.77;;;34.63;;
3991;SDS011;2010;48.194;16.394;2022-11-15T01:20:17;71.00;;;34.97;;
3991;SDS011;2010;48.194;16.394;2022-11-15T01:23:06;80.10;;;37.10;;
3991;SDS011;2010;48.194;16.394;2022-11-15T01:25:58;74.43;;;35.33;;
3991;SDS011;2010;48.194;16.394;2022-11-15T01:28:47;76.50;;;36.80;;
3991;SDS011;2010;48.194;16.394;2022-11-15T01:31:41;80.90;;;37.23;;
3991;SDS011;2010;48.194;16.394;2022-11-15T01:34:51;76.03;;;36.17;;
3991;SDS011;2010;48.194;16.394;2022-11-15T01:37:40;78.70;;;34.93;;
3991;SDS011;2010;48.194;16.394;2022-11-15T01:40:33;80.37;;;37.07;;
3991;SDS011;2010;48.194;16.394;2022-11-15T01:43:21;69.20;;;33.97;;
3991;SDS011;2010;48.194;16.394;2022-11-15T01:46:30;66.10;;;33.50;;
3991;SDS011;2010;48.194;16.394;2022-11-15T01:49:33;65.70;;;32.67;;
3991;SDS011;2010;48.194;16.394;2022-11-15T01:52:26;68.63;;;33.50;;
3991;SDS011;2010;48.194;16.394;2022-11-15T01:55:17;70.07;;;36.17;;
3991;SDS011;2010;48.194;16.394;2022-11-15T01:58:09;70.43;;;33.63;;
3991;SDS011;2010;48.194;16.394;2022-11-15T02:01:07;64.57;;;35.20;;
3991;SDS011;2010;48.194;16.394;2022-11-15T02:04:00;72.33;;;36.30;;
3991;SDS011;2010;48.194;16.394;2022-11-15T02:06:55;73.10;;;34.50;;
3991;SDS011;2010;48.194;16.394;2022-11-15T02:09:49;69.77;;;34.00;;
3991;SDS011;2010;48.194;16.394;2022-11-15T02:12:40;69.43;;;34.93;;
3991;SDS011;2010;48.194;16.394;2022-11-15T02:15:34;68.03;;;31.87;;
3991;SDS011;2010;48.194;16.394;2022-11-15T02:18:31;66.67;;;34.07;;
3991;SDS011;2010;48.194;16.394;2022-11-15T02:21:28;61.47;;;31.17;;
3991;SDS011;2010;48.194;16.394;2022-11-15T02:24:36;67.37;;;32.40;;
3991;SDS011;2010;48.194;16.394;2022-11-15T02:31:22;61.10;;;29.53;;
3991;SDS011;2010;48.194;16.394;2022-11-15T02:34:20;66.83;;;31.50;;
3991;SDS011;2010;48.194;16.394;2022-11-15T02:37:20;66.30;;;30.67;;
3991;SDS011;2010;48.194;16.394;2022-11-15T02:40:23;64.63;;;30.27;;
3991;SDS011;2010;48.194;16.394;2022-11-15T02:43:21;60.20;;;30.20;;
3991;SDS011;2010;48.194;16.394;2022-11-15T02:46:36;56.37;;;29.40;;
3991;SDS011;2010;48.194;16.394;2022-11-15T02:49:48;58.13;;;30.60;;
3991;SDS011;2010;48.194;16.394;2022-11-15T02:52:37;58.17;;;29.93;;
3991;SDS011;2010;48.194;16.394;2022-11-15T02:55:28;57.17;;;30.87;;
3991;SDS011;2010;48.194;16.394;2022-11-15T02:58:22;65.80;;;33.00;;
3991;SDS011;2010;48.194;16.394;2022-11-15T03:01:55;60.00;;;31.87;;
3991;SDS011;2010;48.194;16.394;2022-11-15T03:04:53;66.73;;;31.03;;
3991;SDS011;2010;48.194;16.394;2022-11-15T03:07:50;57.30;;;30.33;;
3991;SDS011;2010;48.194;16.394;2022-11-15T03:10:51;68.73;;;33.90;;
3991;SDS011;2010;48.194;16.394;2022-11-15T03:13:54;59.07;;;31.23;;
3991;SDS011;2010;48.194;16.394;2022-11-15T03:16:49;66.77;;;33.20;;
3991;SDS011;2010;48.194;16.394;2022-11-15T03:19:46;65.80;;;31.07;;
3991;SDS011;2010;48.194;16.394;2022-11-15T03:22:44;58.60;;;30.90;;
3991;SDS011;2010;48.194;16.394;2022-11-15T03:25:33;71.13;;;32.20;;
3991;SDS011;2010;48.194;16.394;2022-11-15T03:28:35;64.70;;;31.23;;
3991;SDS011;2010;48.194;16.394;2022-11-15T03:31:38;60.90;;;30.93;;
3991;SDS011;2010;48.194;16.394;2022-11-15T03:34:51;63.80;;;30.73;;
3991;SDS011;2010;48.194;16.394;2022-11-15T03:37:46;65.93;;;31.87;;
3991;SDS011;2010;48.194;16.394;2022-11-15T03:40:38;62.43;;;31.40;;
3991;SDS011;2010;48.194;16.394;2022-11-15T03:43:33;63.30;;;31.00;;
3991;SDS011;2010;48.194;16.394;2022-11-15T03:46:31;64.30;;;30.90;;
3991;SDS011;2010;48.194;16.394;2022-11-15T03:49:25;63.87;;;30.90;;
3991;SDS011;2010;48.194;16.394;2022-11-15T03:52:31;55.20;;;28.93;;
3991;SDS011;2010;48.194;16.394;2022-11-15T03:55:23;61.33;;;29.90;;
3991;SDS011;2010;48.194;16.394;2022-11-15T03:58:13;67.03;;;30.37;;
3991;SDS011;2010;48.194;16.394;2022-11-15T04:01:09;60.03;;;28.80;;
3991;SDS011;2010;48.194;16.394;2022-11-15T04:04:05;61.40;;;30.10;;
3991;SDS011;2010;48.194;16.394;2022-11-15T04:06:54;57.67;;;29.17;;
3991;SDS011;2010;48.194;16.394;2022-11-15T04:09:59;64.73;;;30.90;;
3991;SDS011;2010;48.194;16.394;2022-11-15T04:12:55;66.80;;;32.07;;
3991;SDS011;2010;48.194;16.394;2022-11-15T04:15:46;60.27;;;30.47;;
3991;SDS011;2010;48.194;16.394;2022-11-15T04:18:36;66.77;;;32.63;;
3991;SDS011;2010;48.194;16.394;2022-11-15T04:21:28;72.43;;;33.17;;
3991;SDS011;2010;48.194;16.394;2022-11-15T04:24:34;69.40;;;31.27;;
3991;SDS011;2010;48.194;16.394;2022-11-15T04:27:31;75.83;;;33.73;;
3991;SDS011;2010;48.194;16.394;2022-11-15T04:30:19;67.63;;;33.37;;
3991;SDS011;2010;48.194;16.394;2022-11-15T04:33:07;75.53;;;33.87;;
3991;SDS011;2010;48.194;16.394;2022-11-15T04:35:56;81.77;;;35.93;;
3991;SDS011;2010;48.194;16.394;2022-11-15T04:39:06;76.23;;;34.50;;
3991;SDS011;2010;48.194;16.394;2022-11-15T04:41:55;82.27;;;33.90;;
3991;SDS011;2010;48.194;16.394;2022-11-15T04:44:49;72.97;;;33.97;;
3991;SDS011;2010;48.194;16.394;2022-11-15T04:47:41;80.93;;;34.87;;
3991;SDS011;2010;48.194;16.394;2022-11-15T04:50:32;89.67;;;36.40;;
3991;SDS011;2010;48.194;16.394;2022-11-15T04:53:25;82.17;;;33.17;;
3991;SDS011;2010;48.194;16.394;2022-11-15T04:56:17;90.10;;;35.87;;
3991;SDS011;2010;48.194;16.394;2022-11-15T04:59:13;86.90;;;36.07;;
3991;SDS011;2010;48.194;16.394;2022-11-15T05:02:18;83.60;;;34.33;;
3991;SDS011;2010;48.194;16.394;2022-11-15T05:05:11;77.00;;;35.00;;
3991;SDS011;2010;48.194;16.394;2022-11-15T05:08:00;79.53;;;34.80;;
3991;SDS011;2010;48.194;16.394;2022-11-15T05:10:48;87.17;;;36.77;;
3991;SDS011;2010;48.194;16.394;2022-11-15T05:13:38;88.80;;;37.00;;
3991;SDS011;2010;48.194;16.394;2022-11-15T05:16:29;87.87;;;37.20;;
3991;SDS011;2010;48.194;16.394;2022-11-15T05:19:31;82.07;;;36.60;;
3991;SDS011;2010;48.194;16.394;2022-11-15T05:22:26;78.67;;;33.90;;
3991;SDS011;2010;48.194;16.394;2022-11-15T05:25:23;89.10;;;35.50;;
3991;SDS011;2010;48.194;16.394;2022-11-15T05:28:16;83.90;;;34.73;;
3991;SDS011;2010;48.194;16.394;2022-11-15T05:31:07;78.93;;;33.57;;
3991;SDS011;2010;48.194;16.394;2022-11-15T05:33:57;79.73;;;34.10;;
3991;SDS011;2010;48.194;16.394;2022-11-15T05:37:00;77.60;;;33.60;;
3991;SDS011;2010;48.194;16.394;2022-11-15T05:39:47;87.10;;;35.83;;
3991;SDS011;2010;48.194;16.394;2022-11-15T05:42:38;81.47;;;34.47;;
3991;SDS011;2010;48.194;16.394;2022-11-15T05:45:32;91.63;;;35.10;;
3991;SDS011;2010;48.194;16.394;2022-11-15T05:48:32;86.80;;;33.90;;
3991;SDS011;2010;48.194;16.394;2022-11-15T05:51:22;80.93;;;35.10;;
3991;SDS011;2010;48.194;16.394;2022-11-15T05:54:15;99.17;;;38.83;;
3991;SDS011;2010;48.194;16.394;2022-11-15T05:57:08;94.33;;;37.43;;
3991;SDS011;2010;48.194;16.394;2022-11-15T05:59:55;83.80;;;36.00;;
3991;SDS011;2010;48.194;16.394;2022-11-15T06:02:46;80.17;;;34.90;;
3991;SDS011;2010;48.194;16.394;2022-11-15T06:05:36;71.60;;;34.60;;
3991;SDS011;2010;48.194;16.394;2022-11-15T06:08:30;69.10;;;34.30;;
3991;SDS011;2010;48.194;16.394;2022-11-15T06:11:28;69.30;;;32.10;;
3991;SDS011;2010;48.194;16.394;2022-11-15T06:14:16;71.40;;;32.83;;
3991;SDS011;2010;48.194;16.394;2022-11-15T06:17:05;63.77;;;31.10;;
3991;SDS011;2010;48.194;16.394;2022-11-15T06:19:57;66.77;;;29.90;;
3991;SDS011;2010;48.194;16.394;2022-11-15T06:22:45;64.93;;;30.67;;
3991;SDS011;2010;48.194;16.394;2022-11-15T06:25:40;71.47;;;30.97;;
3991;SDS011;2010;48.194;16.394;2022-11-15T06:28:32;74.43;;;32.80;;
3991;SDS011;2010;48.194;16.394;2022-11-15T06:31:23;73.07;;;34.03;;
3991;SDS011;2010;48.194;16.394;2022-11-15T06:34:20;83.07;;;35.50;;
3991;SDS011;2010;48.194;16.394;2022-11-15T06:37:12;71.97;;;32.93;;
3991;SDS011;2010;48.194;16.394;2022-11-15T06:40:03;76.70;;;32.50;;
3991;SDS011;2010;48.194;16.394;2022-11-15T06:43:06;85.67;;;33.70;;
3991;SDS011;2010;48.194;16.394;2022-11-15T06:45:59;93.20;;;35.53;;
3991;SDS011;2010;48.194;16.394;2022-11-15T06:48:50;72.93;;;34.37;;
3991;SDS011;2010;48.194;16.394;2022-11-15T06:51:38;76.13;;;35.37;;
3991;SDS011;2010;48.194;16.394;2022-11-15T06:54:29;82.10;;;34.80;;
3991;SDS011;2010;48.194;16.394;2022-11-15T06:57:26;80.93;;;35.10;;
3991;SDS011;2010;48.194;16.394;2022-11-15T07:00:16;72.63;;;34.20;;
3991;SDS011;2010;48.194;16.394;2022-11-15T07:03:07;82.67;;;34.60;;
3991;SDS011;2010;48.194;16.394;2022-11-15T07:05:55;84.17;;;34.07;;
3991;SDS011;2010;48.194;16.394;2022-11-15T07:08:51;85.43;;;36.90;;
3991;SDS011;2010;48.194;16.394;2022-11-15T07:11:37;84.63;;;37.23;;
3991;SDS011;2010;48.194;16.394;2022-11-15T07:14:24;101.30;;;39.07;;
3991;SDS011;2010;48.194;16.394;2022-11-15T07:17:11;95.40;;;39.20;;
3991;SDS011;2010;48.194;16.394;2022-11-15T07:19:59;93.10;;;38.40;;
3991;SDS011;2010;48.194;16.394;2022-11-15T07:22:46;88.37;;;36.97;;
3991;SDS011;2010;48.194;16.394;2022-11-15T07:25:35;87.37;;;36.20;;
3991;SDS011;2010;48.194;16.394;2022-11-15T07:28:21;85.60;;;37.07;;
3991;SDS011;2010;48.194;16.394;2022-11-15T07:31:08;81.27;;;36.90;;
3991;SDS011;2010;48.194;16.394;2022-11-15T07:33:55;79.67;;;35.60;;
3991;SDS011;2010;48.194;16.394;2022-11-15T07:36:43;79.93;;;36.10;;
3991;SDS011;2010;48.194;16.394;2022-11-15T07:39:30;96.47;;;37.80;;
3991;SDS011;2010;48.194;16.394;2022-11-15T07:42:16;89.27;;;38.67;;
3991;SDS011;2010;48.194;16.394;2022-11-15T07:45:20;93.37;;;38.00;;
3991;SDS011;2010;48.194;16.394;2022-11-15T07:48:08;88.07;;;38.17;;
3991;SDS011;2010;48.194;16.394;2022-11-15T07:50:54;85.97;;;37.17;;
3991;SDS011;2010;48.194;16.394;2022-11-15T07:53:42;96.30;;;36.07;;
3991;SDS011;2010;48.194;16.394;2022-11-15T07:56:31;89.33;;;37.87;;
3991;SDS011;2010;48.194;16.394;2022-11-15T07:59:18;85.67;;;37.47;;
3991;SDS011;2010;48.194;16.394;2022-11-15T08:02:05;100.00;;;40.90;;
3991;SDS011;2010;48.194;16.394;2022-11-15T08:04:51;93.90;;;39.53;;
3991;SDS011;2010;48.194;16.394;2022-11-15T08:07:38;93.73;;;38.00;;
3991;SDS011;2010;48.194;16.394;2022-11-15T08:10:26;95.80;;;41.20;;
3991;SDS011;2010;48.194;16.394;2022-11-15T08:13:14;88.63;;;35.53;;
3991;SDS011;2010;48.194;16.394;2022-11-15T08:16:01;86.93;;;39.30;;
3991;SDS011;2010;48.194;16.394;2022-11-15T08:18:52;90.50;;;39.17;;
3991;SDS011;2010;48.194;16.394;2022-11-15T08:21:38;97.87;;;40.27;;
3991;SDS011;2010;48.194;16.394;2022-11-15T08:24:25;86.47;;;39.00;;
3991;SDS011;2010;48.194;16.394;2022-11-15T08:27:13;97.67;;;38.93;;
3991;SDS011;2010;48.194;16.394;2022-11-15T08:30:00;96.07;;;42.00;;
3991;SDS011;2010;48.194;16.394;2022-11-15T08:32:50;94.97;;;41.10;;
3991;SDS011;2010;48.194;16.394;2022-11-15T08:35:37;102.37;;;39.70;;
3991;SDS011;2010;48.194;16.394;2022-11-15T08:38:24;89.87;;;37.77;;
3991;SDS011;2010;48.194;16.394;2022-11-15T08:41:12;94.37;;;37.50;;
3991;SDS011;2010;48.194;16.394;2022-11-15T08:44:01;87.33;;;36.77;;
3991;SDS011;2010;48.194;16.394;2022-11-15T08:46:49;91.37;;;38.13;;
3991;SDS011;2010;48.194;16.394;2022-11-15T08:49:36;82.70;;;36.10;;
3991;SDS011;2010;48.194;16.394;2022-11-15T08:52:23;89.90;;;37.67;;
3991;SDS011;2010;48.194;16.394;2022-11-15T08:55:09;81.17;;;36.70;;
3991;SDS011;2010;48.194;16.394;2022-11-15T08:57:56;86.33;;;37.40;;
3991;SDS011;2010;48.194;16.394;2022-11-15T09:00:44;91.83;;;38.33;;
3991;SDS011;2010;48.194;16.394;2022-11-15T09:03:31;89.33;;;38.13;;
3991;SDS011;2010;48.194;16.394;2022-11-15T09:06:18;91.47;;;38.40;;
3991;SDS011;2010;48.194;16.394;2022-11-15T09:09:04;97.33;;;39.13;;
3991;SDS011;2010;48.194;16.394;2022-11-15T09:11:51;93.27;;;38.60;;
3991;SDS011;2010;48.194;16.394;2022-11-15T09:14:44;82.37;;;35.77;;
3991;SDS011;2010;48.194;16.394;2022-11-15T09:17:32;97.70;;;39.07;;
3991;SDS011;2010;48.194;16.394;2022-11-15T09:20:19;84.53;;;36.63;;
3991;SDS011;2010;48.194;16.394;2022-11-15T09:23:06;84.70;;;36.63;;
3991;SDS011;2010;48.194;16.394;2022-11-15T09:25:57;74.63;;;34.63;;
3991;SDS011;2010;48.194;16.394;2022-11-15T09:28:45;78.17;;;35.40;;
3991;SDS011;2010;48.194;16.394;2022-11-15T09:31:32;83.80;;;35.73;;
3991;SDS011;2010;48.194;16.394;2022-11-15T09:34:21;78.37;;;34.27;;
3991;SDS011;2010;48.194;16.394;2022-11-15T09:37:07;76.97;;;35.00;;
3991;SDS011;2010;48.194;16.394;2022-11-15T09:39:54;81.47;;;36.23;;
3991;SDS011;2010;48.194;16.394;2022-11-15T09:42:46;84.93;;;36.30;;
3991;SDS011;2010;48.194;16.394;2022-11-15T09:45:42;96.07;;;37.13;;
3991;SDS011;2010;48.194;16.394;2022-11-15T09:48:48;92.33;;;37.30;;
3991;SDS011;2010;48.194;16.394;2022-11-15T09:51:38;86.43;;;37.77;;
3991;SDS011;2010;48.194;16.394;2022-11-15T09:54:19;86.23;;;36.17;;
3991;SDS011;2010;48.194;16.394;2022-11-15T09:57:15;87.93;;;37.33;;
3991;SDS011;2010;48.194;16.394;2022-11-15T09:59:55;96.80;;;40.63;;
3991;SDS011;2010;48.194;16.394;2022-11-15T10:02:53;98.67;;;40.83;;
3991;SDS011;2010;48.194;16.394;2022-11-15T10:05:37;91.47;;;39.67;;
3991;SDS011;2010;48.194;16.394;2022-11-15T10:08:13;93.10;;;40.90;;
3991;SDS011;2010;48.194;16.394;2022-11-15T10:10:56;88.33;;;39.27;;
3991;SDS011;2010;48.194;16.394;2022-11-15T10:13:46;92.03;;;41.70;;
3991;SDS011;2010;48.194;16.394;2022-11-15T10:16:27;103.13;;;42.03;;
3991;SDS011;2010;48.194;16.394;2022-11-15T10:19:04;91.80;;;39.10;;
3991;SDS011;2010;48.194;16.394;2022-11-15T10:21:38;94.87;;;39.60;;
3991;SDS011;2010;48.194;16.394;2022-11-15T10:24:15;89.53;;;37.83;;
3991;SDS011;2010;48.194;16.394;2022-11-15T10:26:47;93.73;;;39.03;;
3991;SDS011;2010;48.194;16.394;2022-11-15T10:29:18;100.03;;;42.40;;
3991;SDS011;2010;48.194;16.394;2022-11-15T10:31:52;96.50;;;38.87;;
3991;SDS011;2010;48.194;16.394;2022-11-15T10:34:21;87.07;;;38.97;;
3991;SDS011;2010;48.194;16.394;2022-11-15T10:36:54;95.13;;;38.97;;
3991;SDS011;2010;48.194;16.394;2022-11-15T10:39:24;96.67;;;39.47;;
3991;SDS011;2010;48.194;16.394;2022-11-15T10:41:53;91.73;;;39.80;;
3991;SDS011;2010;48.194;16.394;2022-11-15T10:44:26;95.60;;;39.13;;
3991;SDS011;2010;48.194;16.394;2022-11-15T10:49:53;85.80;;;39.63;;
3991;SDS011;2010;48.194;16.394;2022-11-15T10:52:25;98.57;;;40.70;;
3991;SDS011;2010;48.194;16.394;2022-11-15T10:54:56;96.60;;;39.60;;
3991;SDS011;2010;48.194;16.394;2022-11-15T10:57:28;83.50;;;40.43;;
3991;SDS011;2010;48.194;16.394;2022-11-15T10:59:58;85.13;;;38.73;;
3991;SDS011;2010;48.194;16.394;2022-11-15T11:02:29;97.00;;;40.87;;
3991;SDS011;2010;48.194;16.394;2022-11-15T11:04:59;82.40;;;39.10;;
3991;SDS011;2010;48.194;16.394;2022-11-15T11:07:28;96.77;;;41.07;;
3991;SDS011;2010;48.194;16.394;2022-11-15T11:10:00;96.70;;;39.07;;
3991;SDS011;2010;48.194;16.394;2022-11-15T11:12:51;84.70;;;39.77;;
3991;SDS011;2010;48.194;16.394;2022-11-15T11:15:19;82.03;;;36.77;;
3991;SDS011;2010;48.194;16.394;2022-11-15T11:20:42;89.53;;;39.53;;
3991;SDS011;2010;48.194;16.394;2022-11-15T11:23:17;92.10;;;38.13;;
3991;SDS011;2010;48.194;16.394;2022-11-15T11:25:56;88.73;;;37.80;;
3991;SDS011;2010;48.194;16.394;2022-11-15T11:28:35;85.87;;;40.10;;
3991;SDS011;2010;48.194;16.394;2022-11-15T11:31:14;89.30;;;38.73;;
3991;SDS011;2010;48.194;16.394;2022-11-15T11:33:50;79.57;;;37.33;;
3991;SDS011;2010;48.194;16.394;2022-11-15T11:36:25;83.57;;;40.00;;
3991;SDS011;2010;48.194;16.394;2022-11-15T11:38:57;81.13;;;37.43;;
3991;SDS011;2010;48.194;16.394;2022-11-15T11:41:42;74.67;;;36.53;;
3991;SDS011;2010;48.194;16.394;2022-11-15T11:44:21;79.20;;;36.20;;
3991;SDS011;2010;48.194;16.394;2022-11-15T11:46:54;73.97;;;35.13;;
3991;SDS011;2010;48.194;16.394;2022-11-15T11:49:26;93.40;;;40.97;;
3991;SDS011;2010;48.194;16.394;2022-11-15T11:52:00;78.30;;;39.60;;
3991;SDS011;2010;48.194;16.394;2022-11-15T11:54:32;87.00;;;39.60;;
3991;SDS011;2010;48.194;16.394;2022-11-15T11:57:07;79.60;;;37.60;;
3991;SDS011;2010;48.194;16.394;2022-11-15T11:59:42;76.63;;;35.87;;
3991;SDS011;2010;48.194;16.394;2022-11-15T12:02:12;73.27;;;36.00;;
3991;SDS011;2010;48.194;16.394;2022-11-15T12:04:44;67.43;;;33.50;;
3991;SDS011;2010;48.194;16.394;2022-11-15T12:07:19;64.93;;;32.97;;
3991;SDS011;2010;48.194;16.394;2022-11-15T12:09:52;71.10;;;34.50;;
3991;SDS011;2010;48.194;16.394;2022-11-15T12:12:25;66.03;;;33.17;;
3991;SDS011;2010;48.194;16.394;2022-11-15T12:14:57;75.07;;;34.03;;
3991;SDS011;2010;48.194;16.394;2022-11-15T12:17:28;60.07;;;30.93;;
3991;SDS011;2010;48.194;16.394;2022-11-15T12:19:58;63.60;;;31.03;;
3991;SDS011;2010;48.194;16.394;2022-11-15T12:22:31;70.53;;;33.60;;
3991;SDS011;2010;48.194;16.394;2022-11-15T12:25:04;65.43;;;34.00;;
3991;SDS011;2010;48.194;16.394;2022-11-15T12:27:38;69.80;;;33.87;;
3991;SDS011;2010;48.194;16.394;2022-11-15T12:30:09;71.43;;;34.77;;
3991;SDS011;2010;48.194;16.394;2022-11-15T12:32:39;64.77;;;33.50;;
3991;SDS011;2010;48.194;16.394;2022-11-15T12:35:25;67.67;;;33.23;;
3991;SDS011;2010;48.194;16.394;2022-11-15T12:37:55;62.93;;;33.60;;
3991;SDS011;2010;48.194;16.394;2022-11-15T12:40:24;64.57;;;33.20;;
3991;SDS011;2010;48.194;16.394;2022-11-15T12:42:58;66.47;;;35.23;;
3991;SDS011;2010;48.194;16.394;2022-11-15T12:45:32;70.43;;;35.57;;
3991;SDS011;2010;48.194;16.394;2022-11-15T12:57:40;63.03;;;34.33;;
3991;SDS011;2010;48.194;16.394;2022-11-15T13:03:22;55.47;;;31.63;;
3991;SDS011;2010;48.194;16.394;2022-11-15T13:09:00;54.07;;;31.70;;
3991;SDS011;2010;48.194;16.394;2022-11-15T13:11:42;50.10;;;28.73;;
3991;SDS011;2010;48.194;16.394;2022-11-15T13:17:16;48.57;;;28.77;;
3991;SDS011;2010;48.194;16.394;2022-11-15T13:19:53;54.43;;;30.93;;
3991;SDS011;2010;48.194;16.394;2022-11-15T13:22:23;57.27;;;31.30;;
3991;SDS011;2010;48.194;16.394;2022-11-15T13:25:16;50.70;;;29.90;;
3991;SDS011;2010;48.194;16.394;2022-11-15T13:27:47;52.93;;;30.50;;
3991;SDS011;2010;48.194;16.394;2022-11-15T13:30:21;56.93;;;32.50;;
3991;SDS011;2010;48.194;16.394;2022-11-15T13:32:52;50.13;;;28.67;;
3991;SDS011;2010;48.194;16.394;2022-11-15T13:35:21;52.63;;;30.97;;
3991;SDS011;2010;48.194;16.394;2022-11-15T13:37:51;60.10;;;31.33;;
3991;SDS011;2010;48.194;16.394;2022-11-15T13:40:21;56.97;;;32.97;;
3991;SDS011;2010;48.194;16.394;2022-11-15T13:42:51;59.63;;;32.90;;
3991;SDS011;2010;48.194;16.394;2022-11-15T13:45:19;60.60;;;32.87;;
3991;SDS011;2010;48.194;16.394;2022-11-15T13:47:57;61.77;;;34.30;;
3991;SDS011;2010;48.194;16.394;2022-11-15T13:50:27;55.63;;;32.23;;
3991;SDS011;2010;48.194;16.394;2022-11-15T13:53:00;56.57;;;34.80;;
3991;SDS011;2010;48.194;16.394;2022-11-15T13:55:30;58.13;;;34.10;;
3991;SDS011;2010;48.194;16.394;2022-11-15T13:58:00;58.57;;;33.60;;
3991;SDS011;2010;48.194;16.394;2022-11-15T14:00:34;49.73;;;32.20;;
3991;SDS011;2010;48.194;16.394;2022-11-15T14:03:07;51.73;;;30.03;;
3991;SDS011;2010;48.194;16.394;2022-11-15T14:05:41;50.23;;;29.90;;
3991;SDS011;2010;48.194;16.394;2022-11-15T14:08:20;44.83;;;28.10;;
3991;SDS011;2010;48.194;16.394;2022-11-15T14:11:05;49.43;;;30.57;;
3991;SDS011;2010;48.194;16.394;2022-11-15T14:13:35;50.40;;;32.00;;
3991;SDS011;2010;48.194;16.394;2022-11-15T14:16:13;52.83;;;31.90;;
3991;SDS011;2010;48.194;16.394;2022-11-15T14:18:45;46.67;;;30.03;;
3991;SDS011;2010;48.194;16.394;2022-11-15T14:21:21;45.27;;;29.10;;
3991;SDS011;2010;48.194;16.394;2022-11-15T14:23:49;52.90;;;32.80;;
3991;SDS011;2010;48.194;16.394;2022-11-15T14:26:26;47.10;;;31.27;;
3991;SDS011;2010;48.194;16.394;2022-11-15T14:28:56;53.80;;;32.20;;
3991;SDS011;2010;48.194;16.394;2022-11-15T14:31:24;53.40;;;31.47;;
3991;SDS011;2010;48.194;16.394;2022-11-15T14:33:53;50.87;;;32.27;;
3991;SDS011;2010;48.194;16.394;2022-11-15T14:36:21;53.33;;;33.20;;
3991;SDS011;2010;48.194;16.394;2022-11-15T14:38:51;55.40;;;34.33;;
3991;SDS011;2010;48.194;16.394;2022-11-15T14:41:21;56.90;;;35.23;;
3991;SDS011;2010;48.194;16.394;2022-11-15T14:43:51;64.27;;;37.37;;
3991;SDS011;2010;48.194;16.394;2022-11-15T14:46:20;66.87;;;37.30;;
3991;SDS011;2010;48.194;16.394;2022-11-15T14:48:49;58.40;;;36.40;;
3991;SDS011;2010;48.194;16.394;2022-11-15T14:51:20;65.00;;;38.43;;
3991;SDS011;2010;48.194;16.394;2022-11-15T14:53:49;66.13;;;39.37;;
3991;SDS011;2010;48.194;16.394;2022-11-15T14:56:21;66.87;;;39.60;;
3991;SDS011;2010;48.194;16.394;2022-11-15T14:58:51;64.60;;;38.77;;
3991;SDS011;2010;48.194;16.394;2022-11-15T15:01:22;67.97;;;39.57;;
3991;SDS011;2010;48.194;16.394;2022-11-15T15:03:52;70.80;;;39.60;;
3991;SDS011;2010;48.194;16.394;2022-11-15T15:06:23;76.70;;;41.10;;
3991;SDS011;2010;48.194;16.394;2022-11-15T15:08:52;68.23;;;41.00;;
3991;SDS011;2010;48.194;16.394;2022-11-15T15:11:20;65.53;;;39.20;;
3991;SDS011;2010;48.194;16.394;2022-11-15T15:13:51;71.63;;;41.63;;
3991;SDS011;2010;48.194;16.394;2022-11-15T15:16:22;68.73;;;40.50;;
3991;SDS011;2010;48.194;16.394;2022-11-15T15:18:51;65.67;;;40.57;;
3991;SDS011;2010;48.194;16.394;2022-11-15T15:21:20;66.53;;;40.47;;
3991;SDS011;2010;48.194;16.394;2022-11-15T15:23:51;69.17;;;39.97;;
3991;SDS011;2010;48.194;16.394;2022-11-15T15:26:21;63.30;;;36.80;;
3991;SDS011;2010;48.194;16.394;2022-11-15T15:28:50;65.93;;;40.17;;
3991;SDS011;2010;48.194;16.394;2022-11-15T15:31:19;59.67;;;38.20;;
3991;SDS011;2010;48.194;16.394;2022-11-15T15:33:47;65.73;;;38.43;;
3991;SDS011;2010;48.194;16.394;2022-11-15T15:36:17;58.63;;;37.90;;
3991;SDS011;2010;48.194;16.394;2022-11-15T15:38:45;67.30;;;39.13;;
3991;SDS011;2010;48.194;16.394;2022-11-15T15:41:22;58.90;;;36.57;;
3991;SDS011;2010;48.194;16.394;2022-11-15T15:43:51;68.20;;;38.03;;
3991;SDS011;2010;48.194;16.394;2022-11-15T15:46:19;57.00;;;36.73;;
3991;SDS011;2010;48.194;16.394;2022-11-15T15:48:48;60.57;;;37.23;;
3991;SDS011;2010;48.194;16.394;2022-11-15T15:51:18;61.07;;;37.17;;
3991;SDS011;2010;48.194;16.394;2022-11-15T15:53:46;65.27;;;38.53;;
3991;SDS011;2010;48.194;16.394;2022-11-15T15:56:19;68.53;;;38.73;;
3991;SDS011;2010;48.194;16.394;2022-11-15T15:58:51;61.33;;;38.00;;
3991;SDS011;2010;48.194;16.394;2022-11-15T16:01:19;65.17;;;40.13;;
3991;SDS011;2010;48.194;16.394;2022-11-15T16:03:50;59.77;;;37.07;;
3991;SDS011;2010;48.194;16.394;2022-11-15T16:06:32;62.73;;;37.27;;
3991;SDS011;2010;48.194;16.394;2022-11-15T16:09:05;59.50;;;36.70;;
3991;SDS011;2010;48.194;16.394;2022-11-15T16:11:41;61.30;;;35.93;;
3991;SDS011;2010;48.194;16.394;2022-11-15T16:14:11;58.20;;;35.43;;
3991;SDS011;2010;48.194;16.394;2022-11-15T16:16:41;66.60;;;37.87;;
3991;SDS011;2010;48.194;16.394;2022-11-15T16:19:10;59.03;;;36.47;;
3991;SDS011;2010;48.194;16.394;2022-11-15T16:21:39;64.87;;;38.37;;
3991;SDS011;2010;48.194;16.394;2022-11-15T16:24:07;56.90;;;35.50;;
3991;SDS011;2010;48.194;16.394;2022-11-15T16:26:36;63.43;;;36.70;;
3991;SDS011;2010;48.194;16.394;2022-11-15T16:29:05;63.83;;;37.20;;
3991;SDS011;2010;48.194;16.394;2022-11-15T16:31:37;61.07;;;36.13;;
3991;SDS011;2010;48.194;16.394;2022-11-15T16:34:05;61.53;;;36.00;;
3991;SDS011;2010;48.194;16.394;2022-11-15T16:36:34;60.37;;;35.97;;
3991;SDS011;2010;48.194;16.394;2022-11-15T16:39:02;60.97;;;35.40;;
3991;SDS011;2010;48.194;16.394;2022-11-15T16:41:31;56.33;;;34.40;;
3991;SDS011;2010;48.194;16.394;2022-11-15T16:44:00;62.20;;;36.57;;